createdAt,value
2018-09-18T00:00:07.763Z,7.40
2018-09-18T00:02:38.757Z,7.40
2018-09-18T00:05:09.717Z,7.70
2018-09-18T00:07:44.583Z,7.67
2018-09-18T00:10:15.377Z,8.00
2018-09-18T00:12:47.065Z,7.60
2018-09-18T00:15:18.547Z,7.87
2018-09-18T00:17:49.547Z,8.20
2018-09-18T00:20:20.357Z,8.63
2018-09-18T00:22:51.523Z,9.43
2018-09-18T00:25:22.327Z,8.00
2018-09-18T00:27:54.790Z,8.23
2018-09-18T00:30:24.219Z,9.33
2018-09-18T00:32:54.464Z,8.63
2018-09-18T00:35:25.651Z,9.07
2018-09-18T00:37:57.347Z,8.73
2018-09-18T00:40:28.139Z,9.23
2018-09-18T00:42:58.956Z,9.53
2018-09-18T00:45:29.810Z,9.30
2018-09-18T00:48:00.719Z,9.70
2018-09-18T00:50:30.881Z,9.00
2018-09-18T00:53:01.813Z,8.60
2018-09-18T00:55:32.275Z,9.43
2018-09-18T00:58:03.095Z,9.00
2018-09-18T01:00:34.239Z,8.90
2018-09-18T01:03:05.213Z,8.80
2018-09-18T01:05:36.131Z,9.43
2018-09-18T01:08:05.717Z,9.63
2018-09-18T01:10:36.589Z,9.30
2018-09-18T01:13:06.681Z,10.10
2018-09-18T01:15:37.790Z,9.60
2018-09-18T01:18:10.118Z,9.47
2018-09-18T01:20:41.089Z,9.23
2018-09-18T01:23:11.681Z,9.10
2018-09-18T01:25:42.506Z,8.73
2018-09-18T01:28:13.277Z,9.33
2018-09-18T01:30:44.389Z,9.13
2018-09-18T01:33:15.414Z,8.63
2018-09-18T01:35:46.527Z,9.97
2018-09-18T01:38:17.511Z,9.30
2018-09-18T01:40:48.409Z,9.57
2018-09-18T01:43:19.354Z,9.43
2018-09-18T01:45:49.715Z,9.33
2018-09-18T01:48:20.137Z,9.83
2018-09-18T01:50:50.955Z,10.03
2018-09-18T01:53:21.752Z,9.10
2018-09-18T01:55:52.572Z,9.53
2018-09-18T01:58:23.442Z,9.73
2018-09-18T02:00:53.534Z,9.27
2018-09-18T02:03:24.351Z,9.17
2018-09-18T02:05:55.219Z,9.73
2018-09-18T02:08:26.039Z,10.07
2018-09-18T02:10:57.078Z,9.53
2018-09-18T02:13:27.046Z,9.60
2018-09-18T02:15:57.874Z,9.83
2018-09-18T02:18:28.799Z,10.53
2018-09-18T02:20:59.547Z,10.53
2018-09-18T02:23:30.667Z,10.07
2018-09-18T02:26:02.131Z,10.27
2018-09-18T02:28:32.937Z,9.97
2018-09-18T02:31:03.793Z,10.17
2018-09-18T02:33:34.032Z,10.87
2018-09-18T02:36:05.306Z,10.03
2018-09-18T02:38:35.749Z,10.07
2018-09-18T02:41:06.675Z,9.90
2018-09-18T02:43:37.597Z,9.70
2018-09-18T02:46:08.351Z,9.87
2018-09-18T02:48:39.800Z,9.53
2018-09-18T02:51:10.863Z,10.37
2018-09-18T02:53:41.334Z,10.73
2018-09-18T02:56:13.999Z,9.43
2018-09-18T02:58:44.871Z,10.13
2018-09-18T03:01:14.951Z,10.60
2018-09-18T03:03:46.014Z,10.77
2018-09-18T03:06:17.201Z,9.67
2018-09-18T03:08:47.951Z,10.20
2018-09-18T03:11:18.807Z,10.53
2018-09-18T03:13:49.887Z,10.47
2018-09-18T03:16:20.822Z,11.00
2018-09-18T03:18:51.927Z,11.00
2018-09-18T03:21:22.702Z,10.20
2018-09-18T03:23:54.498Z,10.73
2018-09-18T03:26:25.223Z,9.43
2018-09-18T03:28:55.946Z,10.33
2018-09-18T03:31:25.433Z,10.20
2018-09-18T03:33:55.757Z,10.73
2018-09-18T03:36:26.009Z,10.63
2018-09-18T03:38:56.923Z,11.00
2018-09-18T03:41:27.781Z,10.30
2018-09-18T03:43:58.593Z,10.43
2018-09-18T03:46:29.459Z,11.00
2018-09-18T03:49:00.956Z,10.83
2018-09-18T03:51:31.584Z,10.57
2018-09-18T03:54:02.494Z,10.70
2018-09-18T03:56:31.965Z,11.00
2018-09-18T03:59:05.058Z,11.17
2018-09-18T04:01:35.922Z,11.67
2018-09-18T04:04:07.225Z,10.50
2018-09-18T04:06:38.395Z,10.80
2018-09-18T04:09:10.577Z,11.57
2018-09-18T04:11:41.891Z,10.87
2018-09-18T04:14:13.338Z,11.20
2018-09-18T04:16:43.813Z,13.37
2018-09-18T04:19:14.325Z,12.23
2018-09-18T04:21:45.282Z,11.27
2018-09-18T04:24:15.659Z,11.07
2018-09-18T04:26:46.671Z,11.03
2018-09-18T04:29:17.903Z,12.00
2018-09-18T04:31:48.815Z,11.87
2018-09-18T04:34:19.261Z,11.57
2018-09-18T04:36:49.535Z,11.87
2018-09-18T04:39:21.621Z,12.70
2018-09-18T04:41:52.833Z,12.03
2018-09-18T04:44:23.362Z,12.40
2018-09-18T04:46:52.911Z,11.63
2018-09-18T04:49:24.172Z,11.03
2018-09-18T04:51:55.292Z,11.93
2018-09-18T04:54:25.720Z,13.17
2018-09-18T04:56:56.761Z,11.73
2018-09-18T04:59:27.829Z,12.57
2018-09-18T05:01:59.065Z,12.00
2018-09-18T05:04:31.487Z,11.60
2018-09-18T05:07:01.866Z,11.17
2018-09-18T05:09:33.343Z,11.83
2018-09-18T05:12:04.109Z,12.80
2018-09-18T05:14:34.279Z,12.13
2018-09-18T05:17:04.721Z,14.93
2018-09-18T05:19:36.005Z,12.03
2018-09-18T05:22:07.367Z,12.07
2018-09-18T05:24:38.473Z,11.83
2018-09-18T05:27:09.073Z,11.73
2018-09-18T05:29:39.596Z,12.33
2018-09-18T05:32:09.613Z,12.97
2018-09-18T05:34:40.361Z,13.23
2018-09-18T05:37:11.022Z,12.60
2018-09-18T05:39:41.412Z,11.90
2018-09-18T05:42:10.987Z,13.40
2018-09-18T05:44:41.762Z,12.90
2018-09-18T05:47:13.533Z,12.67
2018-09-18T05:49:44.683Z,12.20
2018-09-18T05:52:15.212Z,11.70
2018-09-18T05:54:45.593Z,12.30
2018-09-18T05:57:16.686Z,12.50
2018-09-18T05:59:47.144Z,11.43
2018-09-18T06:02:17.670Z,11.47
2018-09-18T06:04:47.460Z,10.17
2018-09-18T06:07:19.211Z,11.67
2018-09-18T06:09:48.824Z,9.80
2018-09-18T06:12:19.151Z,12.23
2018-09-18T06:14:48.719Z,9.90
2018-09-18T06:17:19.117Z,10.03
2018-09-18T06:19:48.847Z,9.93
2018-09-18T06:22:19.276Z,9.33
2018-09-18T06:24:49.579Z,9.47
2018-09-18T06:27:20.956Z,9.47
2018-09-18T06:29:51.883Z,9.80
2018-09-18T06:32:22.142Z,9.33
2018-09-18T06:34:52.429Z,9.77
2018-09-18T06:37:23.013Z,10.03
2018-09-18T06:39:57.446Z,10.17
2018-09-18T06:42:27.878Z,9.53
2018-09-18T06:45:07.558Z,10.07
2018-09-18T06:47:41.097Z,10.80
2018-09-18T06:50:11.995Z,11.05
2018-09-18T06:52:43.098Z,10.23
2018-09-18T06:55:15.239Z,10.32
2018-09-18T06:57:47.133Z,9.83
2018-09-18T07:00:18.273Z,10.18
2018-09-18T07:02:49.216Z,10.93
2018-09-18T07:05:20.935Z,10.03
2018-09-18T07:08:28.573Z,9.95
2018-09-18T07:10:59.461Z,13.55
2018-09-18T07:13:31.534Z,11.00
2018-09-18T07:16:02.501Z,10.30
2018-09-18T07:18:34.892Z,10.23
2018-09-18T07:21:07.793Z,10.15
2018-09-18T07:23:38.727Z,10.68
2018-09-18T07:26:10.259Z,9.38
2018-09-18T07:28:40.362Z,9.30
2018-09-18T07:31:11.247Z,10.28
2018-09-18T07:33:43.205Z,10.10
2018-09-18T07:36:14.311Z,9.90
2018-09-18T07:38:44.827Z,9.50
2018-09-18T07:41:16.381Z,9.15
2018-09-18T07:43:47.436Z,9.23
2018-09-18T07:46:18.237Z,9.90
2018-09-18T07:48:49.324Z,9.35
2018-09-18T07:51:21.360Z,9.98
2018-09-18T07:53:53.435Z,9.70
2018-09-18T07:56:24.500Z,9.48
2018-09-18T07:58:54.743Z,8.83
2018-09-18T08:01:25.910Z,9.50
2018-09-18T08:03:58.442Z,8.63
2018-09-18T08:06:28.250Z,9.17
2018-09-18T08:08:58.186Z,7.47
2018-09-18T08:11:30.324Z,8.13
2018-09-18T08:14:01.644Z,8.55
2018-09-18T08:16:31.813Z,9.45
2018-09-18T08:19:02.113Z,7.85
2018-09-18T08:21:33.794Z,8.45
2018-09-18T08:24:04.491Z,7.00
2018-09-18T08:26:35.328Z,7.37
2018-09-18T08:29:05.297Z,7.53
2018-09-18T08:31:36.345Z,7.40
2018-09-18T08:34:06.264Z,7.10
2018-09-18T08:36:37.110Z,7.30
2018-09-18T08:39:09.042Z,7.83
2018-09-18T08:41:40.697Z,7.13
2018-09-18T08:44:12.471Z,6.97
2018-09-18T08:46:43.424Z,6.63
2018-09-18T08:49:13.319Z,6.77
2018-09-18T08:51:44.250Z,7.30
2018-09-18T08:54:16.137Z,6.93
2018-09-18T08:56:46.690Z,7.07
2018-09-18T08:59:17.972Z,6.67
2018-09-18T09:01:49.194Z,6.93
2018-09-18T09:04:20.094Z,6.40
2018-09-18T09:06:50.874Z,7.13
2018-09-18T09:09:22.282Z,6.87
2018-09-18T09:11:58.704Z,6.40
2018-09-18T09:14:29.766Z,6.40
2018-09-18T09:17:00.651Z,5.43
2018-09-18T09:19:31.331Z,6.57
2018-09-18T09:22:01.276Z,5.13
2018-09-18T09:24:32.098Z,5.17
2018-09-18T09:27:02.877Z,4.93
2018-09-18T09:29:33.557Z,4.70
2018-09-18T09:32:05.178Z,5.33
2018-09-18T09:34:37.177Z,5.00
2018-09-18T09:37:15.062Z,4.10
2018-09-18T09:39:46.332Z,4.37
2018-09-18T09:42:17.535Z,4.43
2018-09-18T09:44:48.309Z,4.87
2018-09-18T09:47:19.555Z,4.70
2018-09-18T09:49:50.209Z,5.17
2018-09-18T09:52:21.070Z,4.57
2018-09-18T09:54:51.058Z,4.43
2018-09-18T09:57:20.901Z,5.33
2018-09-18T09:59:51.725Z,5.07
2018-09-18T10:02:30.573Z,5.00
2018-09-18T10:05:01.529Z,4.77
2018-09-18T10:07:31.184Z,5.13
2018-09-18T10:10:01.724Z,5.30
2018-09-18T10:12:32.332Z,5.20
2018-09-18T10:15:02.982Z,5.33
2018-09-18T10:17:33.715Z,6.00
2018-09-18T10:20:05.130Z,5.60
2018-09-18T10:22:36.777Z,4.70
2018-09-18T10:25:07.756Z,5.03
2018-09-18T10:27:39.012Z,4.40
2018-09-18T10:30:10.103Z,4.23
2018-09-18T10:32:41.258Z,5.17
2018-09-18T10:35:12.758Z,5.03
2018-09-18T10:37:43.742Z,5.20
2018-09-18T10:40:15.126Z,5.07
2018-09-18T10:42:45.891Z,4.80
2018-09-18T10:45:17.010Z,4.47
2018-09-18T10:47:48.701Z,4.47
2018-09-18T10:50:19.609Z,4.47
2018-09-18T10:52:50.978Z,4.37
2018-09-18T10:55:22.517Z,4.53
2018-09-18T10:57:53.382Z,4.40
2018-09-18T11:00:24.257Z,4.47
2018-09-18T11:02:55.890Z,4.63
2018-09-18T11:05:26.610Z,4.30
2018-09-18T11:07:57.793Z,4.07
2018-09-18T11:10:28.689Z,4.83
2018-09-18T11:12:59.553Z,4.03
2018-09-18T11:15:30.983Z,4.17
2018-09-18T11:18:02.591Z,4.10
2018-09-18T11:20:33.515Z,4.30
2018-09-18T11:23:04.326Z,3.77
2018-09-18T11:25:34.383Z,4.03
2018-09-18T11:28:05.117Z,4.03
2018-09-18T11:30:35.956Z,3.90
2018-09-18T11:33:06.830Z,4.20
2018-09-18T11:35:37.620Z,4.00
2018-09-18T11:38:08.651Z,4.17
2018-09-18T11:40:40.527Z,4.30
2018-09-18T11:43:11.302Z,4.30
2018-09-18T11:45:41.279Z,4.30
2018-09-18T11:48:14.681Z,4.33
2018-09-18T11:50:44.568Z,4.17
2018-09-18T11:53:16.132Z,4.70
2018-09-18T11:55:46.965Z,4.50
2018-09-18T11:58:17.736Z,4.63
2018-09-18T12:00:48.736Z,4.60
2018-09-18T12:03:20.015Z,4.87
2018-09-18T12:05:50.778Z,4.40
2018-09-18T12:08:21.064Z,4.17
2018-09-18T12:10:53.410Z,4.23
2018-09-18T12:13:24.939Z,4.07
2018-09-18T12:15:57.116Z,4.60
2018-09-18T12:18:27.790Z,4.40
2018-09-18T12:20:58.593Z,4.63
2018-09-18T12:23:29.939Z,4.13
2018-09-18T12:26:02.336Z,4.20
2018-09-18T12:28:33.162Z,4.17
2018-09-18T12:31:04.030Z,4.23
2018-09-18T12:33:35.054Z,4.17
2018-09-18T12:36:09.867Z,3.80
2018-09-18T12:38:40.103Z,4.40
2018-09-18T12:41:09.990Z,4.10
2018-09-18T12:43:41.606Z,4.03
2018-09-18T12:46:15.797Z,3.60
2018-09-18T12:48:46.886Z,3.77
2018-09-18T12:51:19.240Z,3.87
2018-09-18T12:53:49.378Z,4.17
2018-09-18T12:56:20.110Z,3.77
2018-09-18T12:58:50.527Z,4.00
2018-09-18T13:01:21.555Z,3.90
2018-09-18T13:03:53.322Z,3.77
2018-09-18T13:06:24.095Z,3.80
2018-09-18T13:08:56.453Z,3.80
2018-09-18T13:11:27.953Z,3.67
2018-09-18T13:13:59.893Z,3.50
2018-09-18T13:16:30.293Z,3.70
2018-09-18T13:19:01.222Z,3.80
2018-09-18T13:21:33.861Z,3.90
2018-09-18T13:24:04.677Z,4.03
2018-09-18T13:26:35.528Z,4.17
2018-09-18T13:29:07.382Z,3.97
2018-09-18T13:31:38.633Z,4.33
2018-09-18T13:34:08.650Z,4.50
2018-09-18T13:36:40.595Z,4.27
2018-09-18T13:39:17.472Z,4.10
2018-09-18T13:41:48.547Z,4.33
2018-09-18T13:44:18.778Z,4.47
2018-09-18T13:46:48.668Z,4.00
2018-09-18T13:49:19.669Z,4.03
2018-09-18T13:51:51.165Z,3.80
2018-09-18T13:54:22.919Z,4.23
2018-09-18T13:56:53.975Z,4.50
2018-09-18T13:59:25.739Z,4.27
2018-09-18T14:01:56.728Z,4.40
2018-09-18T14:04:27.570Z,4.17
2018-09-18T14:06:58.249Z,4.53
2018-09-18T14:09:29.729Z,4.10
2018-09-18T14:12:01.236Z,4.57
2018-09-18T14:14:32.886Z,4.20
2018-09-18T14:17:05.072Z,4.30
2018-09-18T14:19:37.100Z,4.30
2018-09-18T14:22:07.934Z,3.87
2018-09-18T14:24:38.687Z,4.07
2018-09-18T14:27:09.483Z,3.93
2018-09-18T14:29:41.594Z,4.03
2018-09-18T14:32:13.391Z,4.20
2018-09-18T14:34:44.437Z,4.20
2018-09-18T14:37:16.427Z,4.40
2018-09-18T14:39:54.044Z,4.53
2018-09-18T14:42:24.613Z,4.00
2018-09-18T14:44:56.018Z,3.87
2018-09-18T14:47:27.380Z,4.27
2018-09-18T14:49:58.028Z,4.07
2018-09-18T14:52:27.943Z,4.13
2018-09-18T14:54:58.682Z,4.23
2018-09-18T14:57:29.318Z,4.37
2018-09-18T15:00:01.300Z,4.40
2018-09-18T15:02:32.248Z,4.23
2018-09-18T15:05:03.390Z,4.10
2018-09-18T15:07:34.094Z,4.40
2018-09-18T15:10:05.174Z,4.03
2018-09-18T15:12:34.996Z,3.90
2018-09-18T15:15:07.419Z,4.10
2018-09-18T15:17:37.358Z,4.10
2018-09-18T15:20:09.416Z,4.10
2018-09-18T15:22:41.133Z,4.63
2018-09-18T15:25:11.728Z,4.20
2018-09-18T15:27:43.093Z,4.10
2018-09-18T15:30:13.311Z,3.90
2018-09-18T15:32:44.170Z,3.80
2018-09-18T15:35:15.875Z,4.03
2018-09-18T15:37:46.662Z,4.17
2018-09-18T15:40:17.887Z,3.80
2018-09-18T15:42:48.802Z,3.87
2018-09-18T15:45:18.782Z,4.43
2018-09-18T15:47:49.006Z,3.83
2018-09-18T15:50:20.563Z,3.80
2018-09-18T15:52:51.467Z,3.73
2018-09-18T15:55:22.555Z,4.23
2018-09-18T15:57:54.321Z,4.10
2018-09-18T16:00:25.340Z,4.33
2018-09-18T16:02:55.990Z,4.23
2018-09-18T16:05:27.356Z,4.17
2018-09-18T16:07:59.364Z,4.03
2018-09-18T16:10:30.409Z,4.00
2018-09-18T16:13:01.554Z,4.83
2018-09-18T16:18:03.839Z,5.05
2018-09-18T16:20:33.908Z,4.15
2018-09-18T16:23:05.115Z,4.62
2018-09-18T16:25:37.372Z,4.60
2018-09-18T16:28:08.428Z,4.72
2018-09-18T16:30:39.606Z,4.60
2018-09-18T16:33:10.772Z,4.50
2018-09-18T16:35:41.087Z,4.30
2018-09-18T16:38:12.020Z,4.03
2018-09-18T16:40:42.378Z,4.50
2018-09-18T16:43:14.038Z,4.58
2018-09-18T16:45:44.403Z,4.45
2018-09-18T16:48:15.263Z,4.90
2018-09-18T16:50:45.867Z,4.33
2018-09-18T16:53:16.834Z,4.40
2018-09-18T16:55:46.917Z,4.33
2018-09-18T16:58:18.034Z,5.62
2018-09-18T17:00:49.290Z,5.20
2018-09-18T17:03:20.508Z,4.72
2018-09-18T17:05:51.671Z,5.55
2018-09-18T17:08:22.902Z,6.78
2018-09-18T17:10:53.265Z,7.37
2018-09-18T17:13:24.018Z,5.40
2018-09-18T17:15:56.320Z,4.83
2018-09-18T17:18:27.213Z,5.58
2018-09-18T17:20:58.862Z,5.78
2018-09-18T17:23:29.894Z,5.85
2018-09-18T17:26:00.104Z,5.03
2018-09-18T17:28:30.875Z,4.60
2018-09-18T17:31:01.184Z,4.37
2018-09-18T17:33:32.593Z,4.90
2018-09-18T17:36:03.612Z,4.75
2018-09-18T17:38:34.371Z,4.12
2018-09-18T17:41:06.213Z,4.80
2018-09-18T17:43:36.226Z,4.83
2018-09-18T17:46:07.309Z,5.70
2018-09-18T17:48:39.932Z,5.03
2018-09-18T17:51:11.778Z,5.00
2018-09-18T17:53:41.839Z,4.70
2018-09-18T17:56:12.279Z,4.85
2018-09-18T17:58:43.191Z,4.80
2018-09-18T18:01:17.810Z,5.20
2018-09-18T18:03:48.847Z,5.08
2018-09-18T18:06:19.807Z,4.92
2018-09-18T18:08:50.033Z,5.28
2018-09-18T18:11:22.430Z,5.10
2018-09-18T18:13:55.471Z,5.28
2018-09-18T18:16:26.678Z,4.87
2018-09-18T18:18:58.070Z,5.15
2018-09-18T18:21:29.672Z,5.47
2018-09-18T18:24:01.613Z,5.10
2018-09-18T18:26:34.089Z,5.22
2018-09-18T18:29:06.055Z,4.90
2018-09-18T18:31:37.941Z,5.08
2018-09-18T18:34:09.200Z,4.97
2018-09-18T18:36:40.184Z,4.87
2018-09-18T18:39:11.720Z,5.00
2018-09-18T18:41:43.286Z,4.87
2018-09-18T18:44:18.993Z,5.53
2018-09-18T18:46:50.052Z,5.40
2018-09-18T18:49:21.211Z,5.83
2018-09-18T18:51:52.426Z,5.00
2018-09-18T18:54:22.917Z,6.03
2018-09-18T18:56:55.401Z,4.77
2018-09-18T18:59:27.052Z,5.00
2018-09-18T19:01:57.846Z,5.50
2018-09-18T19:04:28.252Z,5.10
2018-09-18T19:07:00.120Z,5.43
2018-09-18T19:09:32.037Z,6.00
2018-09-18T19:12:03.388Z,5.53
2018-09-18T19:14:34.774Z,5.20
2018-09-18T19:17:05.359Z,5.23
2018-09-18T19:19:36.436Z,5.17
2018-09-18T19:22:07.722Z,5.17
2018-09-18T19:24:38.261Z,5.00
2018-09-18T19:27:09.418Z,5.23
2018-09-18T19:29:40.641Z,5.33
2018-09-18T19:32:12.241Z,5.53
2018-09-18T19:34:42.835Z,5.53
2018-09-18T19:37:14.109Z,5.70
2018-09-18T19:39:45.208Z,5.60
2018-09-18T19:42:17.558Z,5.80
2018-09-18T19:44:52.479Z,5.73
2018-09-18T19:47:23.891Z,5.77
2018-09-18T19:49:56.297Z,5.27
2018-09-18T19:52:27.022Z,5.73
2018-09-18T19:54:57.949Z,5.33
2018-09-18T19:57:29.554Z,5.90
2018-09-18T20:00:02.218Z,6.20
2018-09-18T20:02:34.321Z,5.70
2018-09-18T20:05:05.735Z,5.40
2018-09-18T20:07:36.331Z,5.90
2018-09-18T20:10:08.831Z,5.50
2018-09-18T20:12:39.738Z,5.63
2018-09-18T20:15:12.213Z,5.60
2018-09-18T20:17:43.209Z,5.97
2018-09-18T20:20:14.088Z,5.33
2018-09-18T20:22:45.007Z,6.43
2018-09-18T20:25:16.005Z,6.30
2018-09-18T20:27:47.705Z,6.20
2018-09-18T20:30:19.428Z,5.80
2018-09-18T20:32:50.684Z,6.10
2018-09-18T20:35:22.166Z,5.93
2018-09-18T20:37:53.947Z,6.30
2018-09-18T20:40:24.984Z,6.10
2018-09-18T20:42:56.092Z,6.23
2018-09-18T20:45:27.181Z,6.23
2018-09-18T20:47:58.769Z,6.53
2018-09-18T20:50:30.232Z,6.67
2018-09-18T20:53:01.650Z,6.90
2018-09-18T20:55:33.027Z,6.90
2018-09-18T20:58:04.015Z,6.50
2018-09-18T21:00:34.894Z,6.70
2018-09-18T21:03:06.349Z,7.00
2018-09-18T21:05:37.391Z,7.20
2018-09-18T21:08:08.287Z,7.07
2018-09-18T21:10:38.996Z,6.50
2018-09-18T21:13:10.572Z,6.90
2018-09-18T21:15:41.466Z,6.50
2018-09-18T21:18:12.255Z,7.47
2018-09-18T21:20:43.128Z,7.23
2018-09-18T21:23:14.472Z,6.63
2018-09-18T21:26:18.252Z,7.30
2018-09-18T21:28:49.465Z,7.10
2018-09-18T21:31:20.407Z,7.23
2018-09-18T21:33:51.206Z,7.33
2018-09-18T21:36:22.810Z,6.97
2018-09-18T21:38:53.385Z,7.63
2018-09-18T21:41:25.032Z,7.67
2018-09-18T21:43:55.312Z,8.00
2018-09-18T21:46:26.234Z,7.50
2018-09-18T21:48:57.089Z,7.87
2018-09-18T21:51:28.201Z,7.43
2018-09-18T21:53:59.318Z,7.40
2018-09-18T21:56:30.427Z,7.43
2018-09-18T21:59:01.274Z,7.33
2018-09-18T22:01:32.379Z,8.23
2018-09-18T22:04:03.464Z,7.93
2018-09-18T22:06:36.001Z,8.63
2018-09-18T22:09:07.264Z,7.77
2018-09-18T22:11:38.108Z,7.90
2018-09-18T22:14:08.570Z,7.67
2018-09-18T22:16:39.470Z,8.30
2018-09-18T22:19:10.579Z,7.87
2018-09-18T22:21:41.511Z,8.37
2018-09-18T22:24:12.455Z,8.20
2018-09-18T22:26:44.537Z,8.20
2018-09-18T22:29:16.341Z,8.63
2018-09-18T22:31:47.185Z,7.97
2018-09-18T22:34:18.247Z,7.93
2018-09-18T22:36:49.563Z,8.63
2018-09-18T22:39:20.541Z,8.17
2018-09-18T22:41:51.536Z,8.40
2018-09-18T22:44:22.636Z,8.87
2018-09-18T22:46:53.619Z,8.40
2018-09-18T22:49:24.662Z,8.77
2018-09-18T22:51:55.964Z,9.47
2018-09-18T22:54:26.996Z,9.13
2018-09-18T22:56:57.849Z,8.80
2018-09-18T22:59:29.208Z,8.87
2018-09-18T23:02:00.061Z,8.70
2018-09-18T23:04:31.111Z,8.67
2018-09-18T23:07:02.080Z,8.80
2018-09-18T23:09:33.238Z,9.50
2018-09-18T23:12:04.070Z,8.93
2018-09-18T23:14:34.641Z,9.17
2018-09-18T23:17:06.063Z,8.70
2018-09-18T23:19:37.620Z,8.90
2018-09-18T23:22:08.760Z,9.50
2018-09-18T23:24:40.472Z,8.57
2018-09-18T23:27:11.512Z,8.93
2018-09-18T23:29:42.624Z,9.13
2018-09-18T23:32:13.521Z,9.23
2018-09-18T23:34:44.599Z,9.37
2018-09-18T23:37:16.336Z,9.37
2018-09-18T23:39:47.542Z,9.00
2018-09-18T23:42:18.674Z,9.53
2018-09-18T23:44:49.208Z,9.20
2018-09-18T23:47:20.191Z,8.80
2018-09-18T23:49:51.076Z,9.23
2018-09-18T23:52:23.613Z,9.70
2018-09-18T23:54:55.897Z,9.40
2018-09-18T23:57:27.662Z,9.37
2018-09-18T23:59:58.860Z,9.67
